View Sortable Currents For Network
ASOSAWOSCoCoRaHSCOOPDCPISUSM
SchoolNetOtherSCANMy FavoritesBy StateRWIS
RWIS SurfaceRWIS TrafficRWIS SoilBy NWS WFOUSCRN

Current AWOS Conditions

** This page will automatically refresh every five minutes.
Sorted by: (Temperature)     Click on a column to sort it.

Add ID: Name: Ob Time   Wind [knots]   Rainfall
Temp (Hi / Lo) DewP Feels RH% Dir Speed Peak Gust
@ Time
Alti Vsby Hour Today
DNSDENISON05:35 AM 36(36/34) 28 31 72 515 @ 12:15 AM 30.15 10 0
CAVCLARION05:35 AM 36(36/34) 28 30 72 210 712 @ 02:35 AM 30.08 10 0
CBFCOUNCIL BLUFFS05:35 AM 36(36/34) 30 30 79 220 712 @ 02:35 AM 30.17 10 0
CINCARROLL05:35 AM 36(37/36) 30 26 79 240 1523 @ 01:55 AM 30.11 10 0
EBSWebster City05:35 AM 36(36/36) 28 28 72 230 1017 @ 03:35 AM 30.07 10 0
IFAIowa Falls05:35 AM 36(36/35) 30 29 79 220 9G1516 @ 05:15 AM 30.09 10 0
DEHDECORAH05:35 AM 36(37/36) 28 30 72 230 7G1516 @ 02:35 AM 30.04 10 0
FODFORT DODGE04:56 AM 35(35/34) 28 27 75 220 913 @ 12:30 AM 30.09 10 0
PROPerry05:55 AM 35(35/30) 31 85 0 06 @ 02:55 AM 30.13 10 0
ORCOrange City05:35 AM 34(36/32) 28 28 78 220 69 @ 12:15 AM 30.08 10 0
OXVKnoxville05:35 AM 34(34/32) 30 26 85 210 1014 @ 05:15 AM 30.18 10 0
FXYForest City05:35 AM 34(36/34) 32 220 1015 @ 02:55 AM 30.04 10 0
ADUAUDUBON05:35 AM 34(36/34) 28 78 0 015 @ 02:15 AM 30.16 10 0
FSWFORT MADISON05:35 AM 34(37/34) 34 27 100 200 77 @ 05:15 AM 30.26 10 0
MUTMUSCATINE05:35 AM 34(36/32) 28 29 78 190 511 @ 01:35 AM 30.24 10 0
BNWBOONE MUNI05:35 AM 34(36/32) 28 78 @ 06:00 PM 30.11 10 0
IKVANKENY05:35 AM 34(37/34) 28 31 78 180 316 @ 02:55 AM 30.17 10 0
IIBINDEPENDENCE05:35 AM 34(36/34) 30 26 85 210 99 @ 05:15 AM 30.11 10 0 0.0001
AXAALGONA05:35 AM 34(36/34) 28 27 78 220 8G1417 @ 12:35 AM 30.05 10 0
GGIGrinnell05:35 AM 34(34/32) 29 25 82 220 1111 @ 05:35 AM 30.17 10 0
CCYCHARLES CITY05:35 AM 34(34/34) 28 26 78 210 913 @ 03:35 AM 30.06 10 0
HPTHampton05:35 AM 34(36/34) 30 24 85 230 1319 @ 12:55 AM 30.06 10 0
EOKKEOKUK MUNI05:35 AM 34(34/32) 32 210 88 @ 05:35 AM 30.27 10 0
I75Osceola05:35 AM 33(33/32) 29 25 85 200 99 @ 05:35 AM 30.2 10 0
VTIVINTON05:35 AM 33(36/33) 27 26 78 180 77 @ 04:15 AM 30.14 10 0
PEAPELLA05:35 AM 33(38/33) 28 27 82 210 68 @ 04:35 AM 30.2 10 0
TVKCenterville05:35 AM 32(32/30) 28 210 67 @ 03:15 AM 30.25 10 0
MPZMOUNT PLEASANT05:35 AM 32(34/32) 32 200 57 @ 04:15 AM 30.25 10 0
AWGWASHINGTON05:35 AM 32(36/32) 32 220 78 @ 01:15 AM 30.23 10 0
SLBStorm Lake05:35 AM 32(34/32) 28 230 1018 @ 12:35 AM 30.08 10 0
FFLFAIRFIELD05:35 AM 32(32/32) 28 210 67 @ 04:15 AM 30.22 10 0
CSQCRESTON05:35 AM 32(32/30) 28 220 1010 @ 05:35 AM 30.2 10 0
LRJLE MARS05:35 AM 32(32/32) 27 190 68 @ 02:55 AM 30.09 10 0
MXOMONTICELLO MUNI05:35 AM 32(34/32) 30 190 67 @ 02:15 AM 30.15 10 0
CNCCHARITON05:35 AM 32(34/32) 28 210 99 @ 04:55 AM 30.21 10 0
SDASHENANDOAH MUNI05:35 AM 32(32/30) 28 200 57 @ 04:15 AM 30.23 10 0
TNUNEWTON MUNI05:35 AM 32(34/32) 28 210 89 @ 01:35 AM 30.16 10 0
RDKRED OAK05:35 AM 32(32/30) 28 200 88 @ 05:15 AM 30.2 10 0
CKPCherokee05:35 AM 32(34/32) 29 180 49 @ 12:15 AM 30.1 10 0
OLZOELWEIN05:35 AM 32(36/32) 30 200 68 @ 12:35 AM 30.1 0
OOAOskaloosa05:35 AM 31(33/30) 29 23 92 210 88 @ 12:15 AM 30.21 10 0
HNRHARLAN05:35 AM 30(34/30) 30 22 100 180 78 @ 12:55 AM 30.16 10 0
CWICLINTON04:56 AM 30(33/30) 28 22 92 200 79 @ 02:50 AM 30.21 10 0
ICLCLARINDA05:35 AM 28(30/27) 27 21 96 200 66 @ 04:15 AM 30.25 10 0